createdAt,value
2019-03-17T00:03:05.308Z,2.23
2019-03-17T00:07:07.194Z,1.60
2019-03-17T00:11:09.096Z,1.80
2019-03-17T00:15:11.187Z,1.70
2019-03-17T00:19:13.087Z,1.50
2019-03-17T00:23:14.969Z,1.30
2019-03-17T00:27:16.866Z,1.67
2019-03-17T00:31:23.752Z,1.20
2019-03-17T00:35:22.369Z,1.30
2019-03-17T00:39:24.304Z,2.10
2019-03-17T00:43:26.209Z,1.50
2019-03-17T00:47:28.151Z,1.40
2019-03-17T00:51:31.010Z,2.50
2019-03-17T00:55:34.103Z,2.17
2019-03-17T00:59:36.914Z,2.10
2019-03-17T01:03:38.797Z,2.10
2019-03-17T01:07:40.706Z,1.77
2019-03-17T01:11:42.621Z,1.80
2019-03-17T01:15:44.517Z,1.83
2019-03-17T01:19:46.444Z,1.92
2019-03-17T01:23:49.379Z,2.60
2019-03-17T01:27:51.286Z,3.00
2019-03-17T01:31:53.180Z,2.45
2019-03-17T01:35:55.114Z,2.40
2019-03-17T01:39:57.014Z,1.93
2019-03-17T01:43:59.886Z,2.60
2019-03-17T01:48:01.792Z,2.40
2019-03-17T01:52:03.705Z,1.90
2019-03-17T01:56:05.607Z,2.00
2019-03-17T02:00:13.427Z,1.83
2019-03-17T02:04:15.329Z,2.60
2019-03-17T02:08:17.214Z,2.50
2019-03-17T02:12:19.121Z,1.90
2019-03-17T02:16:21.281Z,1.82
2019-03-17T02:20:41.397Z,1.80
2019-03-17T02:24:43.340Z,1.73
2019-03-17T02:28:45.315Z,1.90
2019-03-17T02:32:47.215Z,1.70
2019-03-17T02:36:49.125Z,2.10
2019-03-17T02:40:51.052Z,1.95
2019-03-17T02:44:52.956Z,2.47
2019-03-17T02:48:54.854Z,1.92
2019-03-17T02:52:56.771Z,2.10
2019-03-17T02:56:58.701Z,2.23
2019-03-17T03:01:00.640Z,1.90
2019-03-17T03:05:02.635Z,2.37
2019-03-17T03:09:08.145Z,1.83
2019-03-17T03:13:10.036Z,1.37
2019-03-17T03:17:11.935Z,2.08
2019-03-17T03:21:13.866Z,2.70
2019-03-17T03:25:15.762Z,2.00
2019-03-17T03:29:17.731Z,3.03
2019-03-17T03:33:19.728Z,1.93
2019-03-17T03:37:21.687Z,1.60
2019-03-17T03:41:23.593Z,2.10
2019-03-17T03:45:25.492Z,1.30
2019-03-17T03:49:27.389Z,1.40
2019-03-17T03:53:29.279Z,1.60
2019-03-17T03:57:31.241Z,1.50
2019-03-17T04:01:33.153Z,2.93
2019-03-17T04:05:35.065Z,2.43
2019-03-17T04:09:36.983Z,2.23
2019-03-17T04:13:38.889Z,1.63
2019-03-17T04:17:40.787Z,1.97
2019-03-17T04:21:42.692Z,1.30
2019-03-17T04:25:44.577Z,1.60
2019-03-17T04:29:46.535Z,1.90
2019-03-17T04:33:48.429Z,1.70
2019-03-17T04:37:50.329Z,2.85
2019-03-17T04:41:52.232Z,2.58
2019-03-17T04:45:54.204Z,3.03
2019-03-17T04:50:14.576Z,3.43
2019-03-17T04:54:26.327Z,3.00
2019-03-17T04:58:28.397Z,1.90
2019-03-17T05:02:30.338Z,3.90
2019-03-17T05:06:32.245Z,1.60
2019-03-17T05:10:34.149Z,3.40
2019-03-17T05:14:37.064Z,3.10
2019-03-17T05:18:38.966Z,2.37
2019-03-17T05:22:41.830Z,3.30
2019-03-17T05:26:43.731Z,3.12
2019-03-17T05:30:45.623Z,3.83
2019-03-17T05:34:47.518Z,2.37
2019-03-17T05:38:49.420Z,4.85
2019-03-17T05:42:51.324Z,2.07
2019-03-17T05:46:53.228Z,3.10
2019-03-17T05:50:55.131Z,7.90
2019-03-17T05:54:57.028Z,2.00
2019-03-17T05:58:58.932Z,3.22
2019-03-17T06:03:01.686Z,4.10
2019-03-17T06:07:03.600Z,2.00
2019-03-17T06:11:05.899Z,4.43
2019-03-17T06:15:11.599Z,3.10
2019-03-17T06:19:13.480Z,2.10
2019-03-17T06:23:15.459Z,3.50
2019-03-17T06:27:17.361Z,2.77
2019-03-17T06:31:19.268Z,4.40
2019-03-17T06:35:21.155Z,4.73
2019-03-17T06:39:23.055Z,3.60
2019-03-17T06:43:24.975Z,4.07
2019-03-17T06:47:26.896Z,3.63
2019-03-17T06:51:28.791Z,4.80
2019-03-17T06:55:30.690Z,4.20
2019-03-17T06:59:32.603Z,6.00
2019-03-17T07:03:34.498Z,6.53
2019-03-17T07:07:43.904Z,7.77
2019-03-17T07:11:40.568Z,5.20
2019-03-17T07:15:42.578Z,6.43
2019-03-17T07:19:44.468Z,5.33
2019-03-17T07:23:46.399Z,2.92
2019-03-17T07:27:48.285Z,4.00
2019-03-17T07:31:50.189Z,7.35
2019-03-17T07:35:52.080Z,5.92
2019-03-17T07:39:53.985Z,9.80
2019-03-17T07:43:55.959Z,6.30
2019-03-17T07:47:57.868Z,9.13
2019-03-17T07:51:59.812Z,9.37
2019-03-17T07:56:02.436Z,8.07
2019-03-17T08:00:07.220Z,6.30
2019-03-17T08:04:09.213Z,9.53
2019-03-17T08:08:11.128Z,5.93
2019-03-17T08:12:13.293Z,11.93
2019-03-17T08:16:15.186Z,9.50
2019-03-17T08:20:17.099Z,7.77
2019-03-17T08:24:19.067Z,9.40
2019-03-17T08:28:20.976Z,9.77
2019-03-17T08:32:22.926Z,8.13
2019-03-17T08:36:24.849Z,7.23
2019-03-17T08:40:26.742Z,6.50
2019-03-17T08:44:28.654Z,8.77
2019-03-17T08:48:30.564Z,8.80
2019-03-17T08:52:34.290Z,6.17
2019-03-17T08:56:37.220Z,3.92
2019-03-17T09:00:39.196Z,1.27
2019-03-17T09:04:41.153Z,1.10
2019-03-17T09:08:43.139Z,1.17
2019-03-17T09:12:45.037Z,1.22
2019-03-17T09:16:47.455Z,1.00
2019-03-17T09:20:49.348Z,0.90
2019-03-17T09:24:51.657Z,1.00
2019-03-17T09:28:53.554Z,1.22
2019-03-17T09:32:55.520Z,1.00
2019-03-17T09:36:57.471Z,0.90
2019-03-17T09:40:59.432Z,1.10
2019-03-17T09:45:01.334Z,1.10
2019-03-17T09:49:03.706Z,0.93
2019-03-17T09:53:05.811Z,0.90
2019-03-17T09:57:07.787Z,0.87
2019-03-17T10:01:09.687Z,1.10
2019-03-17T10:05:12.476Z,0.90
2019-03-17T10:09:14.387Z,1.10
2019-03-17T10:13:16.303Z,0.90
2019-03-17T10:17:18.208Z,1.20
2019-03-17T10:21:20.131Z,1.00
2019-03-17T10:25:22.103Z,1.10
2019-03-17T10:29:23.999Z,0.90
2019-03-17T10:33:25.982Z,0.93
2019-03-17T10:37:27.899Z,1.10
2019-03-17T10:41:29.792Z,1.27
2019-03-17T10:45:31.713Z,1.30
2019-03-17T10:49:33.745Z,1.30
2019-03-17T10:53:35.660Z,1.23
2019-03-17T10:57:37.570Z,1.10
2019-03-17T11:01:39.537Z,1.40
2019-03-17T11:05:41.528Z,1.20
2019-03-17T11:09:43.790Z,1.17
2019-03-17T11:13:45.692Z,1.20
2019-03-17T11:17:47.841Z,1.43
2019-03-17T11:21:49.739Z,1.10
2019-03-17T11:25:51.659Z,1.67
2019-03-17T11:29:53.564Z,1.30
2019-03-17T11:33:55.463Z,1.10
2019-03-17T11:37:57.404Z,1.37
2019-03-17T11:41:59.322Z,1.37
2019-03-17T11:46:01.763Z,1.20
2019-03-17T11:50:04.130Z,1.40
2019-03-17T11:54:07.005Z,1.10
2019-03-17T11:58:08.919Z,1.30
2019-03-17T12:02:10.838Z,1.50
2019-03-17T12:06:12.758Z,1.30
2019-03-17T12:10:23.068Z,1.17
2019-03-17T12:14:25.948Z,1.17
2019-03-17T12:18:27.908Z,1.30
2019-03-17T12:22:29.850Z,1.30
2019-03-17T12:26:31.752Z,1.30
2019-03-17T12:30:33.673Z,1.30
2019-03-17T12:34:35.602Z,1.43
2019-03-17T12:38:37.511Z,1.20
2019-03-17T12:42:39.427Z,1.50
2019-03-17T12:46:41.350Z,1.40
2019-03-17T12:50:43.279Z,1.40
2019-03-17T12:54:45.252Z,1.52
2019-03-17T12:58:47.168Z,1.32
2019-03-17T13:02:49.085Z,1.50
2019-03-17T13:06:51.009Z,1.30
2019-03-17T13:10:52.927Z,1.22
2019-03-17T13:14:54.823Z,1.27
2019-03-17T13:18:56.744Z,1.13
2019-03-17T13:22:58.692Z,1.60
2019-03-17T13:27:01.709Z,1.30
2019-03-17T13:31:03.610Z,1.30
2019-03-17T13:35:07.649Z,1.30
2019-03-17T13:39:09.603Z,1.50
2019-03-17T13:43:11.521Z,1.37
2019-03-17T13:47:13.444Z,1.57
2019-03-17T13:51:15.345Z,1.70
2019-03-17T13:55:17.431Z,1.60
2019-03-17T13:59:19.531Z,1.50
2019-03-17T14:03:21.433Z,1.87
2019-03-17T14:07:23.358Z,2.20
2019-03-17T14:11:25.281Z,2.40
2019-03-17T14:15:27.268Z,2.00
2019-03-17T14:19:29.205Z,1.90
2019-03-17T14:23:31.107Z,2.00
2019-03-17T14:27:33.026Z,2.30
2019-03-17T14:31:34.950Z,1.80
2019-03-17T14:35:37.410Z,2.33
2019-03-17T14:39:39.323Z,2.00
2019-03-17T14:43:41.243Z,1.47
2019-03-17T14:47:43.166Z,1.97
2019-03-17T14:51:45.061Z,2.00
2019-03-17T14:55:46.975Z,2.17
2019-03-17T14:59:48.986Z,2.40
2019-03-17T15:03:50.915Z,2.17
2019-03-17T15:07:52.829Z,2.12
2019-03-17T15:11:54.745Z,2.20
2019-03-17T15:16:02.662Z,2.30
2019-03-17T15:20:01.526Z,2.00
2019-03-17T15:24:03.455Z,2.30
2019-03-17T15:28:05.701Z,1.90
2019-03-17T15:32:07.718Z,2.50
2019-03-17T15:36:09.617Z,2.03
2019-03-17T15:40:15.661Z,1.20
2019-03-17T15:44:17.561Z,0.63
2019-03-17T15:48:19.540Z,0.50
2019-03-17T15:52:21.438Z,0.30
2019-03-17T15:56:24.317Z,0.30
2019-03-17T16:00:27.277Z,0.30
2019-03-17T16:04:29.237Z,0.37
2019-03-17T16:08:31.141Z,0.40
2019-03-17T16:12:33.182Z,0.30
2019-03-17T16:16:35.077Z,0.30
2019-03-17T16:20:37.582Z,0.40
2019-03-17T16:24:39.469Z,0.40
2019-03-17T16:28:41.383Z,0.40
2019-03-17T16:32:43.296Z,0.30
2019-03-17T16:36:45.179Z,0.82
2019-03-17T16:40:47.320Z,0.30
2019-03-17T16:44:49.205Z,0.50
2019-03-17T16:48:51.389Z,0.30
2019-03-17T16:52:53.278Z,6.80
2019-03-17T16:56:55.181Z,0.30
2019-03-17T17:00:57.074Z,1.33
2019-03-17T17:04:58.969Z,3.87
2019-03-17T17:09:01.471Z,1.50
2019-03-17T17:13:03.745Z,0.83
2019-03-17T17:17:06.048Z,0.60
2019-03-17T17:21:07.932Z,0.60
2019-03-17T17:25:12.016Z,0.50
2019-03-17T17:29:13.922Z,0.60
2019-03-17T17:33:15.815Z,0.60
2019-03-17T17:37:17.703Z,0.70
2019-03-17T17:41:19.607Z,0.40
2019-03-17T17:45:23.563Z,0.47
2019-03-17T17:49:25.465Z,0.60
2019-03-17T17:53:27.354Z,0.40
2019-03-17T17:57:29.268Z,0.57
2019-03-17T18:01:49.421Z,0.63
2019-03-17T18:05:51.324Z,0.57
2019-03-17T18:09:54.203Z,0.62
2019-03-17T18:13:56.105Z,0.80
2019-03-17T18:17:57.997Z,0.87
2019-03-17T18:21:59.894Z,0.70
2019-03-17T18:26:01.797Z,1.00
2019-03-17T18:30:04.970Z,0.80
2019-03-17T18:34:06.857Z,0.97
2019-03-17T18:38:08.764Z,1.17
2019-03-17T18:42:10.653Z,2.03
2019-03-17T18:46:12.556Z,1.40
2019-03-17T18:50:20.453Z,0.93
2019-03-17T18:54:19.466Z,1.43
2019-03-17T18:58:21.364Z,2.27
2019-03-17T19:02:23.277Z,1.10
2019-03-17T19:06:25.201Z,1.40
2019-03-17T19:10:28.180Z,1.43
2019-03-17T19:14:30.092Z,1.20
2019-03-17T19:18:32.019Z,1.30
2019-03-17T19:22:33.905Z,1.10
2019-03-17T19:26:35.805Z,1.30
2019-03-17T19:30:38.674Z,1.40
2019-03-17T19:34:41.636Z,1.67
2019-03-17T19:38:43.529Z,2.00
2019-03-17T19:42:57.424Z,2.10
2019-03-17T19:46:49.219Z,1.60
2019-03-17T19:50:51.107Z,2.00
2019-03-17T19:54:55.994Z,2.40
2019-03-17T19:58:57.955Z,2.37
2019-03-17T20:02:59.859Z,2.20
2019-03-17T20:07:01.985Z,2.23
2019-03-17T20:11:03.897Z,2.30
2019-03-17T20:15:08.828Z,2.40
2019-03-17T20:19:10.712Z,2.60
2019-03-17T20:23:12.889Z,2.60
2019-03-17T20:27:14.790Z,2.57
2019-03-17T20:31:16.689Z,2.87
2019-03-17T20:35:18.603Z,2.85
2019-03-17T20:39:20.486Z,2.33
2019-03-17T20:43:34.315Z,2.90
2019-03-17T20:47:25.991Z,2.73
2019-03-17T20:51:27.908Z,2.70
2019-03-17T20:55:29.800Z,2.63
2019-03-17T20:59:31.696Z,2.77
2019-03-17T21:03:33.724Z,2.33
2019-03-17T21:07:54.241Z,2.67
2019-03-17T21:11:56.138Z,2.40
2019-03-17T21:15:58.030Z,2.40
2019-03-17T21:19:59.940Z,1.93
2019-03-17T21:24:01.830Z,2.30
2019-03-17T21:28:03.813Z,2.10
2019-03-17T21:32:05.699Z,2.43
2019-03-17T21:36:07.613Z,2.17
2019-03-17T21:40:12.105Z,2.30
2019-03-17T21:44:14.001Z,2.67
2019-03-17T21:48:16.242Z,2.50
2019-03-17T21:52:18.125Z,2.60
2019-03-17T21:56:20.036Z,3.03
2019-03-17T22:00:22.313Z,2.70
2019-03-17T22:04:24.204Z,2.67
2019-03-17T22:08:26.276Z,2.47
2019-03-17T22:12:28.273Z,2.80
2019-03-17T22:16:30.180Z,2.70
2019-03-17T22:20:32.171Z,2.40
2019-03-17T22:24:34.113Z,2.90
2019-03-17T22:28:37.678Z,3.03
2019-03-17T22:32:39.578Z,2.97
2019-03-17T22:36:41.537Z,2.70
2019-03-17T22:40:43.442Z,3.10
2019-03-17T22:44:45.392Z,3.08
2019-03-17T22:48:47.373Z,3.57
2019-03-17T22:52:49.267Z,3.67
2019-03-17T22:56:51.506Z,3.87
2019-03-17T23:00:53.518Z,3.57
2019-03-17T23:04:55.476Z,3.83
2019-03-17T23:08:57.377Z,3.87
2019-03-17T23:13:00.137Z,3.30
2019-03-17T23:17:02.036Z,3.73
2019-03-17T23:21:04.715Z,3.40
2019-03-17T23:25:10.179Z,3.00
2019-03-17T23:29:12.081Z,3.00
2019-03-17T23:33:14.205Z,3.00
2019-03-17T23:37:16.087Z,2.77
2019-03-17T23:41:18.050Z,3.30
2019-03-17T23:45:20.934Z,3.17
2019-03-17T23:49:22.876Z,3.00
2019-03-17T23:53:25.243Z,3.20
2019-03-17T23:57:27.192Z,2.90
